createdAt,value
2018-08-10T00:01:32.498Z,100263.95
2018-08-10T00:04:03.514Z,100271.27
2018-08-10T00:06:34.609Z,100270.94
2018-08-10T00:09:08.545Z,100281.95
2018-08-10T00:11:39.589Z,100283.19
2018-08-10T00:14:10.521Z,100286.87
2018-08-10T00:16:41.668Z,100290.94
2018-08-10T00:19:12.645Z,100294.42
2018-08-10T00:21:43.579Z,100288.36
2018-08-10T00:24:14.524Z,100303.16
2018-08-10T00:26:45.513Z,100308.02
2018-08-10T00:29:16.542Z,100315.58
2018-08-10T00:31:47.520Z,100319.98
2018-08-10T00:34:18.489Z,100324.52
2018-08-10T00:36:49.530Z,100334.25
2018-08-10T00:39:20.483Z,100341.08
2018-08-10T00:41:51.506Z,100352.08
2018-08-10T00:44:22.499Z,100353.98
2018-08-10T00:46:53.514Z,100369.83
2018-08-10T00:49:24.551Z,100375.86
2018-08-10T00:51:55.531Z,100370.70
2018-08-10T00:54:26.497Z,100386.27
2018-08-10T00:56:57.538Z,100382.03
2018-08-10T00:59:28.507Z,100388.23
2018-08-10T01:01:59.501Z,100381.38
2018-08-10T01:04:31.352Z,100389.05
2018-08-10T01:07:02.370Z,100394.77
2018-08-10T01:09:33.397Z,100402.34
2018-08-10T01:12:04.527Z,100408.10
2018-08-10T01:14:37.558Z,100405.77
2018-08-10T01:17:08.517Z,100422.38
2018-08-10T01:19:39.502Z,100412.39
2018-08-10T01:22:10.513Z,100416.42
2018-08-10T01:24:41.503Z,100415.34
2018-08-10T01:27:17.769Z,100417.55
2018-08-10T01:29:48.565Z,100428.41
2018-08-10T01:32:19.531Z,100439.30
2018-08-10T01:34:50.501Z,100437.83
2018-08-10T01:37:21.503Z,100439.79
2018-08-10T01:39:52.510Z,100455.86
2018-08-10T01:42:23.507Z,100462.26
2018-08-10T01:44:54.547Z,100467.63
2018-08-10T01:47:25.551Z,100465.62
2018-08-10T01:49:56.490Z,100471.69
2018-08-10T01:52:27.519Z,100470.64
2018-08-10T01:54:58.476Z,100474.39
2018-08-10T01:57:29.495Z,100486.78
2018-08-10T02:00:00.625Z,100486.44
2018-08-10T02:02:31.685Z,100486.96
2018-08-10T02:05:02.647Z,100498.13
2018-08-10T02:07:37.125Z,100495.88
2018-08-10T02:10:12.419Z,100510.08
2018-08-10T02:12:44.460Z,100512.75
2018-08-10T02:15:17.757Z,100505.73
2018-08-10T02:20:33.605Z,100512.61
2018-08-10T02:23:04.589Z,100512.41
2018-08-10T02:25:35.529Z,100516.45
2018-08-10T02:28:06.490Z,100516.91
2018-08-10T02:30:37.500Z,100528.28
2018-08-10T02:33:08.535Z,100528.96
2018-08-10T02:35:39.521Z,100529.27
2018-08-10T02:38:10.520Z,100531.30
2018-08-10T02:40:41.487Z,100530.47
2018-08-10T02:43:12.781Z,100536.80
2018-08-10T02:45:43.594Z,100540.98
2018-08-10T02:48:14.505Z,100550.84
2018-08-10T02:50:45.489Z,100554.83
2018-08-10T02:53:16.493Z,100549.63
2018-08-10T02:55:47.498Z,100548.25
2018-08-10T02:58:18.833Z,100556.84
2018-08-10T03:00:49.656Z,100558.00
2018-08-10T03:03:20.575Z,100558.22
2018-08-10T03:05:51.590Z,100569.32
2018-08-10T03:08:22.606Z,100566.84
2018-08-10T03:10:53.545Z,100569.88
2018-08-10T03:13:24.502Z,100566.94
2018-08-10T03:15:55.483Z,100576.36
2018-08-10T03:18:26.517Z,100579.65
2018-08-10T03:20:57.477Z,100584.05
2018-08-10T03:23:28.503Z,100577.34
2018-08-10T03:25:59.490Z,100589.52
2018-08-10T03:28:30.801Z,100587.92
2018-08-10T03:31:01.614Z,100590.08
2018-08-10T03:33:33.361Z,100598.73
2018-08-10T03:36:04.400Z,100608.09
2018-08-10T03:38:35.484Z,100603.58
2018-08-10T03:41:06.573Z,100613.80
2018-08-10T03:43:37.517Z,100610.34
2018-08-10T03:46:08.531Z,100623.86
2018-08-10T03:48:39.541Z,100615.98
2018-08-10T03:51:10.517Z,100618.95
2018-08-10T03:53:41.522Z,100628.28
2018-08-10T03:56:12.528Z,100633.30
2018-08-10T03:58:43.505Z,100640.33
2018-08-10T04:01:14.521Z,100650.37
2018-08-10T04:03:45.509Z,100657.02
2018-08-10T04:06:16.538Z,100657.67
2018-08-10T04:08:47.562Z,100670.38
2018-08-10T04:11:18.519Z,100670.84
2018-08-10T04:13:49.559Z,100679.38
2018-08-10T04:16:20.502Z,100675.98
2018-08-10T04:18:51.524Z,100676.17
2018-08-10T04:21:22.531Z,100674.50
2018-08-10T04:23:53.534Z,100685.23
2018-08-10T04:26:24.606Z,100685.76
2018-08-10T04:28:55.518Z,100687.64
2018-08-10T04:31:26.642Z,100700.55
2018-08-10T04:33:57.578Z,100702.30
2018-08-10T04:36:29.921Z,100705.37
2018-08-10T04:39:00.766Z,100710.44
2018-08-10T04:41:31.923Z,100711.23
2018-08-10T04:44:03.021Z,100705.41
2018-08-10T04:46:34.453Z,100709.80
2018-08-10T04:49:06.294Z,100719.09
2018-08-10T04:51:37.372Z,100718.64
2018-08-10T04:54:08.489Z,100728.94
2018-08-10T04:56:39.479Z,100735.39
2018-08-10T04:59:10.513Z,100729.98
2018-08-10T05:01:42.212Z,100736.39
2018-08-10T05:04:13.401Z,100747.34
2018-08-10T05:06:44.498Z,100742.16
2018-08-10T05:09:16.289Z,100750.62
2018-08-10T05:11:47.378Z,100751.23
2018-08-10T05:14:18.512Z,100757.81
2018-08-10T05:16:49.678Z,100764.04
2018-08-10T05:19:20.604Z,100776.89
2018-08-10T05:21:51.573Z,100779.64
2018-08-10T05:24:22.602Z,100774.22
2018-08-10T05:26:53.581Z,100781.52
2018-08-10T05:29:24.541Z,100781.22
2018-08-10T05:31:55.513Z,100782.82
2018-08-10T05:34:26.550Z,100788.72
2018-08-10T05:36:57.544Z,100784.73
2018-08-10T05:39:28.518Z,100795.50
2018-08-10T05:41:59.512Z,100798.11
2018-08-10T05:44:30.497Z,100797.42
2018-08-10T05:47:01.586Z,100799.51
2018-08-10T05:49:32.586Z,100801.53
2018-08-10T05:52:03.569Z,100808.47
2018-08-10T05:54:34.608Z,100816.13
2018-08-10T05:57:06.426Z,100808.32
2018-08-10T05:59:37.570Z,100813.95
2018-08-10T06:02:08.686Z,100818.91
2018-08-10T06:04:39.680Z,100816.17
2018-08-10T06:07:10.588Z,100824.66
2018-08-10T06:09:41.574Z,100820.53
2018-08-10T06:12:12.553Z,100820.13
2018-08-10T06:14:43.522Z,100813.25
2018-08-10T06:17:14.515Z,100827.36
2018-08-10T06:19:45.563Z,100836.80
2018-08-10T06:22:16.480Z,100826.98
2018-08-10T06:24:47.489Z,100836.56
2018-08-10T06:27:18.557Z,100840.42
2018-08-10T06:29:49.523Z,100842.85
2018-08-10T06:32:21.345Z,100843.19
2018-08-10T06:34:52.398Z,100843.77
2018-08-10T06:37:23.521Z,100853.41
2018-08-10T06:39:54.641Z,100850.80
2018-08-10T06:42:25.508Z,100850.23
2018-08-10T06:44:56.601Z,100847.23
2018-08-10T06:47:27.738Z,100852.85
2018-08-10T06:49:58.599Z,100858.81
2018-08-10T06:52:29.559Z,100861.02
2018-08-10T06:55:00.497Z,100852.30
2018-08-10T06:57:31.464Z,100853.38
2018-08-10T07:00:02.665Z,100857.84
2018-08-10T07:02:33.547Z,100861.04
2018-08-10T07:05:04.515Z,100854.34
2018-08-10T07:07:35.534Z,100857.07
2018-08-10T07:10:08.324Z,100858.08
2018-08-10T07:12:39.544Z,100848.77
2018-08-10T07:15:10.497Z,100852.70
2018-08-10T07:17:41.629Z,100850.80
2018-08-10T07:20:12.557Z,100850.76
2018-08-10T07:22:43.509Z,100856.66
2018-08-10T07:25:14.486Z,100853.31
2018-08-10T07:27:45.510Z,100862.19
2018-08-10T07:30:16.458Z,100855.83
2018-08-10T07:32:47.463Z,100849.59
2018-08-10T07:35:18.472Z,100859.50
2018-08-10T07:37:49.472Z,100864.86
2018-08-10T07:40:20.498Z,100859.33
2018-08-10T07:42:51.523Z,100850.44
2018-08-10T07:45:22.522Z,100856.30
2018-08-10T07:47:53.488Z,100849.71
2018-08-10T07:50:24.518Z,100845.39
2018-08-10T07:52:55.487Z,100852.09
2018-08-10T07:55:26.504Z,100850.22
2018-08-10T07:57:57.567Z,100849.71
2018-08-10T08:00:28.569Z,100853.38
2018-08-10T08:02:59.549Z,100859.80
2018-08-10T08:05:30.523Z,100860.28
2018-08-10T08:08:01.524Z,100865.98
2018-08-10T08:10:32.577Z,100862.47
2018-08-10T08:13:03.473Z,100860.28
2018-08-10T08:15:34.474Z,100861.13
2018-08-10T08:18:05.550Z,100858.84
2018-08-10T08:20:38.380Z,100852.34
2018-08-10T08:23:09.470Z,100853.27
2018-08-10T08:25:40.574Z,100861.65
2018-08-10T08:28:11.473Z,100859.83
2018-08-10T08:30:42.494Z,100857.73
2018-08-10T08:33:13.489Z,100863.53
2018-08-10T08:35:44.524Z,100865.89
2018-08-10T08:38:38.746Z,100859.53
2018-08-10T08:41:10.683Z,100870.02
2018-08-10T08:46:04.434Z,100859.02
2018-08-10T08:48:36.832Z,100859.45
2018-08-10T08:51:10.574Z,100862.23
2018-08-10T08:53:41.489Z,100863.21
2018-08-10T08:56:17.025Z,100861.58
2018-08-10T08:58:49.499Z,100864.19
2018-08-10T09:01:20.495Z,100857.03
2018-08-10T09:05:07.801Z,100861.12
2018-08-10T09:07:39.505Z,100858.09
2018-08-10T09:10:16.390Z,100855.50
2018-08-10T09:12:47.382Z,100862.41
2018-08-10T09:15:20.013Z,100849.45
2018-08-10T09:17:51.285Z,100852.88
2018-08-10T09:20:22.496Z,100862.94
2018-08-10T09:22:53.500Z,100863.96
2018-08-10T09:25:24.473Z,100862.23
2018-08-10T09:27:55.481Z,100862.17
2018-08-10T09:30:26.473Z,100865.61
2018-08-10T09:32:57.529Z,100867.91
2018-08-10T09:35:28.506Z,100858.03
2018-08-10T09:37:59.518Z,100877.97
2018-08-10T09:40:30.577Z,100867.57
2018-08-10T09:43:01.498Z,100870.80
2018-08-10T09:45:32.514Z,100876.22
2018-08-10T09:48:03.497Z,100873.96
2018-08-10T09:50:34.494Z,100864.26
2018-08-10T09:53:06.389Z,100873.73
2018-08-10T09:55:38.584Z,100874.42
2018-08-10T09:58:13.625Z,100864.23
2018-08-10T10:00:50.022Z,100869.75
2018-08-10T10:03:24.550Z,100867.81
2018-08-10T10:05:57.033Z,100862.63
2018-08-10T10:08:28.399Z,100860.78
2018-08-10T10:10:59.517Z,100861.19
2018-08-10T10:13:30.476Z,100861.13
2018-08-10T10:16:01.494Z,100865.74
2018-08-10T10:18:32.504Z,100859.31
2018-08-10T10:21:03.531Z,100860.02
2018-08-10T10:23:34.609Z,100859.80
2018-08-10T10:26:05.681Z,100853.31
2018-08-10T10:28:36.566Z,100855.70
2018-08-10T10:31:07.554Z,100856.62
2018-08-10T10:33:38.529Z,100850.87
2018-08-10T10:36:09.483Z,100851.35
2018-08-10T10:38:40.593Z,100846.35
2018-08-10T10:41:12.526Z,100841.02
2018-08-10T10:43:43.501Z,100843.20
2018-08-10T10:46:14.493Z,100856.03
2018-08-10T10:48:45.529Z,100858.70
2018-08-10T10:51:16.592Z,100848.72
2018-08-10T10:53:47.481Z,100845.17
2018-08-10T10:56:18.437Z,100848.33
2018-08-10T10:58:50.205Z,100839.52
2018-08-10T11:01:21.349Z,100838.72
2018-08-10T11:03:52.381Z,100836.05
2018-08-10T11:06:23.516Z,100834.26
2018-08-10T11:08:54.492Z,100821.68
2018-08-10T11:11:25.502Z,100814.85
2018-08-10T11:13:56.489Z,100815.64
2018-08-10T11:16:27.476Z,100815.73
2018-08-10T11:18:58.525Z,100827.08
2018-08-10T11:21:29.852Z,100817.24
2018-08-10T11:24:01.268Z,100818.52
2018-08-10T11:26:32.383Z,100825.89
2018-08-10T11:29:03.489Z,100820.71
2018-08-10T11:31:34.474Z,100807.56
2018-08-10T11:34:05.530Z,100804.06
2018-08-10T11:36:36.536Z,100799.05
2018-08-10T11:39:11.769Z,100812.77
2018-08-10T11:41:42.624Z,100805.66
2018-08-10T11:44:13.557Z,100806.76
2018-08-10T11:46:44.588Z,100799.17
2018-08-10T11:49:15.566Z,100798.15
2018-08-10T11:51:46.506Z,100796.59
2018-08-10T11:54:17.496Z,100788.92
2018-08-10T11:56:48.485Z,100790.81
2018-08-10T11:59:19.546Z,100787.77
2018-08-10T12:01:50.511Z,100790.33
2018-08-10T12:04:21.530Z,100788.23
2018-08-10T12:06:52.509Z,100786.02
2018-08-10T12:09:23.534Z,100780.55
2018-08-10T12:11:54.497Z,100787.04
2018-08-10T12:14:25.525Z,100779.41
2018-08-10T12:16:56.473Z,100775.02
2018-08-10T12:19:27.499Z,100766.56
2018-08-10T12:21:58.508Z,100767.30
2018-08-10T12:24:29.480Z,100768.83
2018-08-10T12:27:00.487Z,100771.70
2018-08-10T12:29:31.491Z,100766.48
2018-08-10T12:32:02.507Z,100770.53
2018-08-10T12:34:34.023Z,100769.23
2018-08-10T12:37:05.299Z,100763.03
2018-08-10T12:39:36.493Z,100758.07
2018-08-10T12:42:07.489Z,100753.30
2018-08-10T12:44:38.498Z,100764.64
2018-08-10T12:47:09.564Z,100752.37
2018-08-10T12:49:40.521Z,100761.05
2018-08-10T12:52:11.525Z,100758.73
2018-08-10T12:54:42.489Z,100765.20
2018-08-10T12:57:13.558Z,100754.34
2018-08-10T12:59:44.520Z,100753.06
2018-08-10T13:02:15.542Z,100757.81
2018-08-10T13:04:46.535Z,100748.02
2018-08-10T13:07:17.590Z,100741.97
2018-08-10T13:09:48.540Z,100734.70
2018-08-10T13:12:19.692Z,100734.20
2018-08-10T13:17:35.662Z,100737.09
2018-08-10T13:20:09.722Z,100735.46
2018-08-10T13:22:40.553Z,100737.69
2018-08-10T13:25:12.204Z,100735.37
2018-08-10T13:27:43.526Z,100737.36
2018-08-10T13:30:14.528Z,100736.50
2018-08-10T13:32:45.526Z,100735.52
2018-08-10T13:35:16.545Z,100733.67
2018-08-10T13:37:47.497Z,100730.42
2018-08-10T13:40:18.557Z,100737.18
2018-08-10T13:42:49.578Z,100734.31
2018-08-10T13:45:20.524Z,100735.52
2018-08-10T13:47:51.525Z,100725.53
2018-08-10T13:50:22.619Z,100734.95
2018-08-10T13:52:53.606Z,100736.93
2018-08-10T13:55:24.541Z,100725.41
2018-08-10T13:57:55.501Z,100728.14
2018-08-10T14:00:27.205Z,100727.40
2018-08-10T14:02:58.396Z,100732.71
2018-08-10T14:05:29.528Z,100728.49
2018-08-10T14:08:00.503Z,100735.42
2018-08-10T14:10:31.538Z,100740.16
2018-08-10T14:13:02.499Z,100739.47
2018-08-10T14:15:33.538Z,100735.28
2018-08-10T14:18:04.646Z,100736.33
2018-08-10T14:20:35.613Z,100731.44
2018-08-10T14:23:06.526Z,100729.30
2018-08-10T14:25:37.643Z,100731.77
2018-08-10T14:28:08.577Z,100735.37
2018-08-10T14:30:39.709Z,100727.63
2018-08-10T14:33:10.640Z,100719.49
2018-08-10T14:35:41.615Z,100721.08
2018-08-10T14:38:12.502Z,100714.09
2018-08-10T14:40:43.516Z,100715.08
2018-08-10T14:43:14.562Z,100711.26
2018-08-10T14:45:45.605Z,100695.67
2018-08-10T14:48:16.553Z,100705.33
2018-08-10T14:50:47.666Z,100707.25
2018-08-10T14:53:18.621Z,100702.77
2018-08-10T14:55:50.397Z,100691.62
2018-08-10T14:58:21.603Z,100695.21
2018-08-10T15:00:52.575Z,100687.95
2018-08-10T15:03:23.512Z,100695.36
2018-08-10T15:05:54.517Z,100698.85
2018-08-10T15:08:25.492Z,100683.19
2018-08-10T15:10:56.576Z,100681.77
2018-08-10T15:13:28.683Z,100681.37
2018-08-10T15:15:59.561Z,100675.72
2018-08-10T15:18:30.589Z,100672.75
2018-08-10T15:21:01.513Z,100669.59
2018-08-10T15:23:32.559Z,100671.09
2018-08-10T15:26:03.597Z,100670.94
2018-08-10T15:28:34.528Z,100677.53
2018-08-10T15:31:05.530Z,100665.09
2018-08-10T15:33:36.520Z,100668.78
2018-08-10T15:36:07.693Z,100667.84
2018-08-10T15:38:38.616Z,100662.81
2018-08-10T15:41:09.637Z,100657.41
2018-08-10T15:43:40.583Z,100650.76
2018-08-10T15:46:11.526Z,100665.21
2018-08-10T15:48:42.550Z,100662.70
2018-08-10T15:51:13.501Z,100656.00
2018-08-10T15:53:44.516Z,100651.98
2018-08-10T15:56:15.599Z,100645.84
2018-08-10T15:58:46.509Z,100654.36
2018-08-10T16:01:17.520Z,100654.48
2018-08-10T16:03:48.508Z,100645.45
2018-08-10T16:06:19.577Z,100645.60
2018-08-10T16:08:50.514Z,100636.20
2018-08-10T16:11:21.512Z,100634.81
2018-08-10T16:13:52.548Z,100640.20
2018-08-10T16:16:23.509Z,100635.75
2018-08-10T16:20:42.488Z,100622.52
2018-08-10T16:23:13.492Z,100637.98
2018-08-10T16:25:44.596Z,100633.90
2018-08-10T16:28:15.540Z,100629.45
2018-08-10T16:30:46.546Z,100625.45
2018-08-10T16:36:00.537Z,100629.97
2018-08-10T16:38:31.522Z,100628.76
2018-08-10T16:41:02.525Z,100627.63
2018-08-10T16:43:33.522Z,100630.95
2018-08-10T16:46:04.666Z,100633.86
2018-08-10T16:48:35.577Z,100627.23
2018-08-10T16:51:06.501Z,100631.58
2018-08-10T16:53:37.519Z,100627.83
2018-08-10T16:56:08.504Z,100628.98
2018-08-10T16:58:39.555Z,100628.15
2018-08-10T17:01:10.774Z,100627.64
2018-08-10T17:03:41.645Z,100624.63
2018-08-10T17:06:12.569Z,100620.34
2018-08-10T17:08:43.530Z,100623.66
2018-08-10T17:11:14.512Z,100620.74
2018-08-10T17:13:45.545Z,100623.16
2018-08-10T17:16:16.537Z,100620.05
2018-08-10T17:21:31.909Z,100619.82
2018-08-10T17:26:46.511Z,100617.07
2018-08-10T17:29:18.253Z,100620.78
2018-08-10T17:31:49.375Z,100616.95
2018-08-10T17:34:20.429Z,100619.22
2018-08-10T17:36:51.493Z,100614.20
2018-08-10T17:39:22.578Z,100613.72
2018-08-10T17:41:53.653Z,100620.66
2018-08-10T17:44:24.578Z,100620.39
2018-08-10T17:46:55.632Z,100618.76
2018-08-10T17:49:26.547Z,100612.52
2018-08-10T17:51:57.505Z,100619.27
2018-08-10T17:54:30.296Z,100620.61
2018-08-10T17:57:00.440Z,100624.66
2018-08-10T17:59:32.384Z,100622.39
2018-08-10T18:02:03.541Z,100621.25
2018-08-10T18:04:34.522Z,100619.67
2018-08-10T18:07:06.020Z,100619.67
2018-08-10T18:12:19.681Z,100626.78
2018-08-10T18:14:50.617Z,100627.63
2018-08-10T18:17:21.752Z,100629.98
2018-08-10T18:19:52.592Z,100626.49
2018-08-10T18:22:23.484Z,100633.19
2018-08-10T18:24:54.498Z,100632.17
2018-08-10T18:27:25.619Z,100635.39
2018-08-10T18:29:56.500Z,100642.55
2018-08-10T18:32:27.626Z,100643.41
2018-08-10T18:34:58.543Z,100641.42
2018-08-10T18:37:29.545Z,100648.86
2018-08-10T18:40:00.497Z,100646.45
2018-08-10T18:42:31.505Z,100649.36
2018-08-10T18:45:02.539Z,100650.63
2018-08-10T18:47:33.481Z,100656.72
2018-08-10T18:50:05.226Z,100657.56
2018-08-10T18:52:37.291Z,100664.52
2018-08-10T18:55:09.626Z,100662.05
2018-08-10T18:57:40.543Z,100663.30
2018-08-10T19:00:17.444Z,100662.02
2018-08-10T19:02:48.550Z,100661.75
2018-08-10T19:05:19.626Z,100657.13
2018-08-10T19:07:50.833Z,100657.44
2018-08-10T19:10:24.281Z,100667.24
2018-08-10T19:12:54.426Z,100671.35
2018-08-10T19:15:25.497Z,100670.41
2018-08-10T19:17:56.499Z,100669.59
2018-08-10T19:20:27.505Z,100675.06
2018-08-10T19:22:58.514Z,100678.30
2018-08-10T19:25:29.511Z,100678.68
2018-08-10T19:28:00.529Z,100682.98
2018-08-10T19:30:31.560Z,100686.98
2018-08-10T19:33:02.525Z,100689.30
2018-08-10T19:35:33.511Z,100678.12
2018-08-10T19:38:04.496Z,100690.19
2018-08-10T19:40:35.518Z,100688.50
2018-08-10T19:43:06.582Z,100694.14
2018-08-10T19:45:37.500Z,100699.89
2018-08-10T19:48:08.717Z,100701.63
2018-08-10T19:50:39.596Z,100698.29
2018-08-10T19:53:10.517Z,100700.19
2018-08-10T19:55:41.496Z,100698.09
2018-08-10T19:58:13.548Z,100702.69
2018-08-10T20:00:44.557Z,100700.44
2018-08-10T20:03:15.496Z,100693.84
2018-08-10T20:05:46.506Z,100698.93
2018-08-10T20:08:17.548Z,100701.63
2018-08-10T20:10:48.505Z,100701.13
2018-08-10T20:13:19.495Z,100690.40
2018-08-10T20:15:50.594Z,100698.60
2018-08-10T20:18:21.553Z,100697.27
2018-08-10T20:23:35.594Z,100695.54
2018-08-10T20:28:51.429Z,100706.03
2018-08-10T20:31:22.661Z,100695.08
2018-08-10T20:33:53.589Z,100691.94
2018-08-10T20:36:24.509Z,100695.63
2018-08-10T20:38:55.567Z,100696.81
2018-08-10T20:41:26.497Z,100688.97
2018-08-10T20:43:57.490Z,100690.48
2018-08-10T20:46:28.518Z,100693.32
2018-08-10T20:48:59.477Z,100696.18
2018-08-10T20:51:30.502Z,100698.39
2018-08-10T20:54:01.653Z,100699.17
2018-08-10T20:56:32.589Z,100691.56
2018-08-10T20:59:03.666Z,100693.25
2018-08-10T21:01:34.596Z,100692.26
2018-08-10T21:04:05.476Z,100696.40
2018-08-10T21:06:37.563Z,100692.40
2018-08-10T21:09:13.405Z,100688.98
2018-08-10T21:11:44.764Z,100684.37
2018-08-10T21:14:15.629Z,100689.47
2018-08-10T21:16:46.593Z,100689.04
2018-08-10T21:19:17.470Z,100686.07
2018-08-10T21:21:48.515Z,100684.20
2018-08-10T21:24:19.468Z,100687.86
2018-08-10T21:26:50.504Z,100687.04
2018-08-10T21:29:21.465Z,100685.60
2018-08-10T21:31:52.504Z,100688.14
2018-08-10T21:34:23.646Z,100683.82
2018-08-10T21:36:54.630Z,100685.07
2018-08-10T21:39:25.480Z,100686.42
2018-08-10T21:41:56.527Z,100681.38
2018-08-10T21:44:27.475Z,100679.63
2018-08-10T21:46:58.474Z,100681.94
2018-08-10T21:49:29.457Z,100684.45
2018-08-10T21:52:00.508Z,100685.16
2018-08-10T21:54:31.559Z,100678.97
2018-08-10T21:57:02.551Z,100686.16
2018-08-10T21:59:33.485Z,100684.37
2018-08-10T22:02:04.573Z,100687.55
2018-08-10T22:04:35.485Z,100688.59
2018-08-10T22:07:06.605Z,100692.93
2018-08-10T22:09:37.623Z,100691.53
2018-08-10T22:12:08.572Z,100697.52
2018-08-10T22:14:44.621Z,100698.02
2018-08-10T22:17:20.749Z,100703.41
2018-08-10T22:19:51.561Z,100692.67
2018-08-10T22:22:22.545Z,100691.63
2018-08-10T22:24:53.501Z,100694.94
2018-08-10T22:27:24.482Z,100695.98
2018-08-10T22:29:55.513Z,100690.92
2018-08-10T22:32:26.493Z,100693.98
2018-08-10T22:34:57.505Z,100693.64
2018-08-10T22:37:28.493Z,100699.46
2018-08-10T22:39:59.520Z,100696.86
2018-08-10T22:42:30.505Z,100698.25
2018-08-10T22:45:01.489Z,100692.77
2018-08-10T22:47:32.490Z,100701.86
2018-08-10T22:50:03.498Z,100697.91
2018-08-10T22:52:34.505Z,100697.19
2018-08-10T22:55:06.785Z,100700.73
2018-08-10T22:57:37.701Z,100695.77
2018-08-10T23:00:08.617Z,100692.72
2018-08-10T23:02:39.524Z,100694.09
2018-08-10T23:05:10.555Z,100694.80
2018-08-10T23:07:41.501Z,100703.64
2018-08-10T23:10:14.541Z,100691.75
2018-08-10T23:12:45.769Z,100693.95
2018-08-10T23:15:16.592Z,100689.09
2018-08-10T23:17:47.793Z,100687.76
2018-08-10T23:20:18.671Z,100691.58
2018-08-10T23:22:50.272Z,100690.26
2018-08-10T23:25:20.372Z,100686.98
2018-08-10T23:27:51.535Z,100687.94
2018-08-10T23:30:22.536Z,100683.53
2018-08-10T23:32:53.501Z,100684.20
2018-08-10T23:35:24.481Z,100686.31
2018-08-10T23:37:55.497Z,100680.48
2018-08-10T23:40:26.486Z,100681.34
2018-08-10T23:42:57.503Z,100678.70
2018-08-10T23:45:28.506Z,100688.90
2018-08-10T23:47:59.534Z,100690.34
2018-08-10T23:50:30.510Z,100683.72
2018-08-10T23:53:01.510Z,100681.98
2018-08-10T23:55:32.497Z,100683.45
2018-08-10T23:58:03.544Z,100683.66
